Angola, Kansas
Current Conditions -  °F | °C
As of 3:52 PM on Wednesday 22 Oct 2014 (Local Time) from KCFV Reporting Station
Clear Clear  
Wind Chill: 78°   Ceiling: Unl
Heat Index: 79°   Visibility: 10mi
Dew Point: 57°   Wind: 13mph
Humidity: 48%   Direction: 210°SSW
Pressure: 30.09"   Gusts: NA
Location:  37.067°N, 95.5817°W
Report Text: KCFV 222052Z AUTO 21011KT 10SM CLR 26/14 A3009 RMK AO2 SLP187 T02560139 56018
Loading
Personal Weather Stations






























Interactive Weather Map
Tropical Storm Tracking
New forecast layout! Learn more

10-Day Weather Forecast

Advertisements
Track Severe Weather on mobile